Time;durP1;ratioP1;P1;durP2;ratioP2;P2;SDS_P1;SDS_P2;PMS_P1;PMS_P2;Temp;Humidity;BMP_temperature;BMP_pressure;BME280_temperature;BME280_humidity;BME280_pressure;Samples;Min_cycle;Max_cycle;Signal;HPM_P1;HPM_P2
2022/12/29 00:02:15;;;;;;;91.92;46.40;;;;;;;-1.47;100.00;98086.67;1730913;82;20980;-78
2022/12/29 00:04:42;;;;;;;87.12;49.33;;;;;;;-1.45;100.00;98080.66;1730852;82;21167;-78
2022/12/29 00:07:09;;;;;;;82.10;42.03;;;;;;;-1.45;100.00;98085.47;1730956;82;21078;-80
2022/12/29 00:09:36;;;;;;;79.75;37.95;;;;;;;-1.42;100.00;98085.05;1730912;82;20984;-78
2022/12/29 00:12:03;;;;;;;80.67;37.35;;;;;;;-1.36;100.00;98082.11;1730854;82;20996;-75
2022/12/29 00:17:16;;;;;;;66.75;31.55;;;;;;;-1.39;100.00;98075.03;1730947;82;21206;-79
2022/12/29 00:36:21;;;;;;;57.90;29.75;;;;;;;-1.20;100.00;98080.87;1731108;82;21008;-78
2022/12/29 00:44:23;;;;;;;57.30;29.72;;;;;;;-1.12;100.00;98095.83;1730819;82;21020;-76
2022/12/29 00:46:50;;;;;;;57.53;29.37;;;;;;;-1.14;100.00;98084.06;1730951;82;20999;-77
2022/12/29 00:49:32;;;;;;;68.02;33.80;;;;;;;-1.19;100.00;98089.20;1730834;82;21003;-76
2022/12/29 00:52:04;;;;;;;61.88;30.12;;;;;;;-1.26;100.00;98095.01;1730987;82;21000;-79
2022/12/29 00:54:34;;;;;;;47.85;25.97;;;;;;;-1.32;100.00;98096.63;1730905;82;21027;-75
2022/12/29 00:57:01;;;;;;;45.08;24.32;;;;;;;-1.35;100.00;98105.02;1731919;81;21130;-78
2022/12/29 00:59:27;;;;;;;48.33;22.87;;;;;;;-1.33;100.00;98112.78;1730865;82;21441;-76
2022/12/29 01:01:54;;;;;;;38.80;17.27;;;;;;;-1.33;100.00;98106.95;1730872;82;21011;-77
2022/12/29 01:04:23;;;;;;;35.48;15.78;;;;;;;-1.29;100.00;98096.20;1730790;82;21476;-77
2022/12/29 01:06:50;;;;;;;40.28;19.75;;;;;;;-1.25;100.00;98101.95;1731198;82;21060;-78
2022/12/29 01:12:04;;;;;;;49.67;23.87;;;;;;;-1.19;100.00;98098.50;1731064;82;21056;-77
2022/12/29 01:14:31;;;;;;;55.17;25.35;;;;;;;-1.21;100.00;98103.18;1731198;82;21044;-77
2022/12/29 01:16:58;;;;;;;63.23;28.85;;;;;;;-1.23;100.00;98105.23;1731158;82;20992;-78
2022/12/29 01:19:25;;;;;;;57.65;26.73;;;;;;;-1.23;100.00;98098.06;1731103;82;21024;-78
2022/12/29 01:21:52;;;;;;;62.43;28.50;;;;;;;-1.29;100.00;98089.56;1731221;82;21177;-76
2022/12/29 01:24:19;;;;;;;60.95;29.67;;;;;;;-1.25;100.00;98082.84;1731001;82;21068;-77
2022/12/29 01:26:47;;;;;;;63.98;29.95;;;;;;;-1.22;100.00;98086.92;1731154;82;21071;-76
2022/12/29 01:29:14;;;;;;;59.93;30.40;;;;;;;-1.22;100.00;98075.77;1731090;82;21455;-77
2022/12/29 01:31:41;;;;;;;50.78;25.55;;;;;;;-1.21;100.00;98070.76;1731210;82;21011;-76
2022/12/29 01:34:08;;;;;;;57.93;27.45;;;;;;;-1.18;100.00;98070.88;1730939;82;21772;-78
2022/12/29 01:36:35;;;;;;;66.02;30.43;;;;;;;-1.23;100.00;98065.34;1731062;82;21338;-76
2022/12/29 01:39:02;;;;;;;63.75;28.90;;;;;;;-1.30;100.00;98071.16;1731097;82;21008;-77
2022/12/29 01:41:29;;;;;;;58.35;28.30;;;;;;;-1.27;100.00;98065.45;1731157;82;21000;-76
2022/12/29 01:43:59;;;;;;;59.80;29.20;;;;;;;-1.28;100.00;98068.62;1731088;82;22163;-76
2022/12/29 01:46:41;;;;;;;60.03;28.57;;;;;;;-1.26;100.00;98064.43;1731140;82;21748;-78
2022/12/29 01:49:18;;;;;;;55.05;26.48;;;;;;;-1.27;100.00;98062.80;1730905;82;20985;-78
2022/12/29 01:51:52;;;;;;;60.48;25.95;;;;;;;-1.24;100.00;98066.37;1731194;82;21027;-77
2022/12/29 01:54:32;;;;;;;48.92;25.12;;;;;;;-1.22;100.00;98064.31;1731008;82;20988;-76
2022/12/29 01:57:05;;;;;;;46.63;26.42;;;;;;;-1.24;100.00;98059.20;1750046;81;21419;-76
2022/12/29 01:59:35;;;;;;;75.60;37.17;;;;;;;-1.15;100.00;98083.77;1751709;81;21077;-76
2022/12/29 02:02:02;;;;;;;62.85;31.33;;;;;;;-1.06;100.00;98088.37;1751651;81;21573;-76
2022/12/29 02:04:31;;;;;;;68.67;32.33;;;;;;;-1.02;100.00;98075.80;1751377;81;21053;-77
2022/12/29 02:07:02;;;;;;;71.22;40.23;;;;;;;-0.96;100.00;98076.81;1751841;81;26811;-77
2022/12/29 02:09:28;;;;;;;68.87;38.10;;;;;;;-0.93;100.00;98070.59;1751601;81;21017;-76
2022/12/29 02:11:56;;;;;;;70.08;37.65;;;;;;;-0.92;100.00;98082.05;1751508;81;21102;-79
2022/12/29 02:14:23;;;;;;;61.88;33.30;;;;;;;-0.85;100.00;98061.58;1699666;81;21498;-76
2022/12/29 02:17:18;;;;;;;69.67;36.85;;;;;;;-0.76;100.00;98058.20;1751667;81;21002;-76
2022/12/29 02:20:16;;;;;;;66.57;35.78;;;;;;;-0.76;100.00;98055.02;1751628;81;21062;-78
2022/12/29 02:23:31;;;;;;;68.62;35.40;;;;;;;-0.74;100.00;98052.97;1751774;81;21007;-76
2022/12/29 02:26:21;;;;;;;52.70;25.27;;;;;;;-0.68;100.00;98052.66;1683960;84;21072;-77
2022/12/29 02:29:14;;;;;;;46.90;23.00;;;;;;;-0.68;100.00;98057.98;1671866;85;21003;-77
2022/12/29 02:32:09;;;;;;;40.80;23.77;;;;;;;-0.69;100.00;98047.01;1778160;79;21024;-76
2022/12/29 02:34:54;;;;;;;44.75;23.80;;;;;;;-0.70;100.00;98036.88;1797148;79;20989;-77
2022/12/29 02:37:35;;;;;;;45.17;19.30;;;;;;;-0.63;100.00;98043.53;1797420;79;21056;-77
2022/12/29 02:40:24;;;;;;;37.98;22.02;;;;;;;-0.57;100.00;98047.52;1797478;79;20982;-78
2022/12/29 02:43:21;;;;;;;;;;;;;;;-0.51;100.00;98044.55;1800136;79;21016;-78
2022/12/29 02:45:59;;;;;;;44.13;25.23;;;;;;;-0.43;100.00;98038.15;1798065;79;20177;-76
2022/12/29 02:48:37;;;;;;;59.58;31.87;;;;;;;-0.45;100.00;98028.23;1796383;79;21021;-77
2022/12/29 02:51:10;;;;;;;75.67;33.80;;;;;;;-0.43;100.00;98039.48;1796723;79;21273;-78
2022/12/29 02:56:23;;;;;;;82.08;43.58;;;;;;;-0.38;100.00;98021.05;1807988;79;21450;-77
2022/12/29 02:58:50;;;;;;;91.00;52.10;;;;;;;-0.35;100.00;98013.96;1814014;79;20994;-77
2022/12/29 03:01:34;;;;;;;85.50;44.33;;;;;;;-0.39;100.00;98016.23;1814237;78;21466;-76
2022/12/29 03:04:33;;;;;;;79.53;39.80;;;;;;;-0.38;100.00;98017.88;1813949;78;21060;-78
2022/12/29 03:07:21;;;;;;;64.10;35.43;;;;;;;-0.46;100.00;98003.97;1765150;80;21652;-76
2022/12/29 03:10:15;;;;;;;60.70;30.80;;;;;;;-0.48;100.00;98008.69;1764263;81;20971;-76
2022/12/29 03:16:23;;;;;;;49.73;23.42;;;;;;;-0.48;100.00;97988.21;1765255;81;21422;-78
2022/12/29 03:19:18;;;;;;;44.70;22.98;;;;;;;-0.60;100.00;97990.72;1764832;81;21016;-78
2022/12/29 03:24:46;;;;;;;35.40;22.35;;;;;;;-0.54;100.00;97981.57;1764706;81;20953;-78
2022/12/29 03:27:17;;;;;;;39.70;21.25;;;;;;;-0.52;100.00;97983.50;1763351;81;21021;-76
2022/12/29 03:29:52;;;;;;;30.40;18.02;;;;;;;-0.47;100.00;97979.70;1762196;81;21454;-76
2022/12/29 03:32:16;;;;;;;41.20;19.30;;;;;;;-0.46;100.00;97989.33;1759963;81;21431;-76
2022/12/29 03:34:43;;;;;;;31.23;16.27;;;;;;;-0.44;100.00;97976.09;1762353;81;21005;-77
2022/12/29 03:37:13;;;;;;;35.60;20.25;;;;;;;-0.43;100.00;97971.08;1762522;81;21084;-78
2022/12/29 03:39:40;;;;;;;41.25;24.23;;;;;;;-0.40;100.00;97970.67;1762114;81;20989;-78
2022/12/29 03:42:11;;;;;;;54.60;29.60;;;;;;;-0.36;100.00;97968.39;1732164;81;21064;-78
2022/12/29 03:44:41;;;;;;;49.33;23.30;;;;;;;-0.37;100.00;97979.56;1762343;81;20994;-76
2022/12/29 03:47:11;;;;;;;34.00;20.30;;;;;;;-0.44;100.00;97980.61;1732975;81;21727;-76
2022/12/29 03:49:38;;;;;;;36.35;20.45;;;;;;;-0.43;100.00;97976.91;1762242;81;20993;-76
2022/12/29 03:52:05;;;;;;;45.55;25.37;;;;;;;-0.44;100.00;97967.30;1762557;81;20997;-76
2022/12/29 03:54:32;;;;;;;37.73;17.15;;;;;;;-0.45;100.00;97966.48;1762137;81;21008;-78
2022/12/29 03:56:59;;;;;;;39.15;21.00;;;;;;;-0.47;100.00;97979.19;1762763;81;21127;-76
2022/12/29 03:59:26;;;;;;;38.50;19.35;;;;;;;-0.44;100.00;97975.28;1762328;81;21208;-78
2022/12/29 04:01:53;;;;;;;37.70;21.60;;;;;;;-0.43;100.00;97979.06;1762350;81;21493;-77
2022/12/29 04:04:20;;;;;;;29.12;15.63;;;;;;;-0.41;100.00;97972.22;1762281;81;21072;-76
2022/12/29 04:06:46;;;;;;;24.70;12.78;;;;;;;-0.47;100.00;97954.42;1762581;81;21030;-78
2022/12/29 04:09:13;;;;;;;26.42;11.78;;;;;;;-0.46;100.00;97952.87;1762297;81;21053;-76
2022/12/29 04:11:40;;;;;;;24.72;13.48;;;;;;;-0.53;100.00;97934.77;1762291;81;21004;-78
2022/12/29 04:14:07;;;;;;;33.90;18.25;;;;;;;-0.59;100.00;97935.63;1762286;81;20982;-76
2022/12/29 04:16:35;;;;;;;43.70;19.20;;;;;;;-0.68;100.00;97964.33;1762470;81;21052;-76
2022/12/29 04:19:02;;;;;;;28.45;15.40;;;;;;;-0.70;100.00;97994.81;1762256;81;21005;-76
2022/12/29 04:21:29;;;;;;;34.58;17.20;;;;;;;-0.62;100.00;97995.41;1762563;81;21426;-77
2022/12/29 04:23:56;;;;;;;28.25;16.97;;;;;;;-0.52;100.00;97989.64;1762092;81;21350;-78
2022/12/29 04:26:23;;;;;;;30.97;16.32;;;;;;;-0.46;100.00;97962.70;1762364;81;21461;-77
2022/12/29 04:28:50;;;;;;;26.05;15.15;;;;;;;-0.45;100.00;97979.80;1762287;81;21064;-78
2022/12/29 04:31:17;;;;;;;44.18;21.82;;;;;;;-0.40;100.00;97967.20;1762440;81;21349;-76
2022/12/29 04:33:44;;;;;;;33.05;13.83;;;;;;;-0.45;100.00;97965.66;1762240;81;21052;-76
2022/12/29 04:36:10;;;;;;;28.38;14.53;;;;;;;-0.45;100.00;97952.36;1762507;81;21469;-76
2022/12/29 04:38:37;;;;;;;43.10;16.70;;;;;;;-0.37;100.00;97950.27;1762053;81;21049;-78
2022/12/29 04:41:05;;;;;;;20.80;11.63;;;;;;;-0.32;100.00;97941.66;1762512;81;21433;-76
2022/12/29 04:43:31;;;;;;;29.87;14.18;;;;;;;-0.21;100.00;97942.31;1762141;81;20981;-76
2022/12/29 04:45:58;;;;;;;30.62;14.28;;;;;;;-0.14;100.00;97948.44;1762660;81;20992;-76
2022/12/29 04:48:25;;;;;;;37.40;12.18;;;;;;;-0.08;100.00;97936.94;1762394;81;21625;-78
2022/12/29 04:50:52;;;;;;;32.10;13.58;;;;;;;0.03;100.00;97943.42;1762622;81;21272;-76
2022/12/29 04:53:19;;;;;;;32.05;16.10;;;;;;;0.08;100.00;97944.91;1762415;81;21481;-77
2022/12/29 04:55:49;;;;;;;29.12;14.85;;;;;;;0.11;100.00;97951.16;1762720;81;20985;-78
2022/12/29 04:58:17;;;;;;;40.55;18.48;;;;;;;0.13;100.00;97950.95;1762400;81;20966;-78
2022/12/29 05:00:44;;;;;;;52.23;20.27;;;;;;;0.14;100.00;97940.59;1762701;81;21529;-77
2022/12/29 05:03:11;;;;;;;45.88;20.02;;;;;;;0.21;100.00;97947.51;1762451;81;21001;-78
2022/12/29 05:05:38;;;;;;;54.03;17.32;;;;;;;0.26;100.00;97945.55;1762337;81;20998;-77
2022/12/29 05:08:05;;;;;;;35.43;15.00;;;;;;;0.34;100.00;97956.44;1762432;81;20997;-76
2022/12/29 05:10:32;;;;;;;30.37;13.85;;;;;;;0.39;100.00;97957.95;1762731;81;21447;-76
2022/12/29 05:12:59;;;;;;;39.03;15.23;;;;;;;0.33;100.00;97950.80;1762591;81;20992;-78
2022/12/29 05:15:26;;;;;;;32.45;16.57;;;;;;;0.31;100.00;97947.55;1762554;81;21005;-78
2022/12/29 05:18:18;;;;;;;35.55;17.48;;;;;;;0.22;100.00;97957.13;1762667;81;21080;-78
2022/12/29 05:20:46;;;;;;;46.28;26.82;;;;;;;0.22;100.00;97958.47;1762714;81;20988;-78
2022/12/29 05:23:13;;;;;;;41.90;22.25;;;;;;;0.21;100.00;97954.69;1762464;81;21022;-78
2022/12/29 05:25:40;;;;;;;44.08;26.23;;;;;;;0.18;100.00;97955.95;1762701;81;21005;-78
2022/12/29 05:28:07;;;;;;;36.77;20.17;;;;;;;0.15;100.00;97948.88;1762447;81;21008;-78
2022/12/29 05:30:34;;;;;;;42.50;23.80;;;;;;;0.07;100.00;97945.95;1762531;81;21002;-77
2022/12/29 05:33:01;;;;;;;38.78;19.55;;;;;;;0.08;100.00;97954.75;1762478;81;21057;-76
2022/12/29 05:35:27;;;;;;;28.38;14.93;;;;;;;0.04;100.00;97961.56;1762660;81;21008;-78
2022/12/29 05:37:54;;;;;;;30.92;15.23;;;;;;;-0.01;100.00;97963.52;1762405;81;21783;-77
2022/12/29 05:40:21;;;;;;;24.77;13.00;;;;;;;-0.04;100.00;97962.10;1762572;81;20985;-78
2022/12/29 05:42:48;;;;;;;28.02;14.40;;;;;;;-0.07;100.00;97953.73;1762528;81;21072;-78
2022/12/29 05:45:15;;;;;;;26.62;12.23;;;;;;;-0.11;100.00;97958.65;1762527;81;21001;-77
2022/12/29 05:47:42;;;;;;;21.35;11.12;;;;;;;-0.20;100.00;97957.78;1762363;81;20997;-78
2022/12/29 05:50:09;;;;;;;19.98;10.10;;;;;;;-0.25;100.00;97955.77;1762676;81;21244;-76
2022/12/29 05:52:45;;;;;;;33.58;13.28;;;;;;;-0.25;100.00;97957.62;1762346;81;21576;-78
2022/12/29 05:55:12;;;;;;;32.42;14.18;;;;;;;-0.38;100.00;97949.97;1763026;81;21463;-78
2022/12/29 05:57:39;;;;;;;41.30;23.15;;;;;;;-0.38;100.00;97956.63;1763824;81;21038;-77
2022/12/29 06:00:07;;;;;;;33.75;17.30;;;;;;;-0.44;100.00;97946.81;1763863;81;21475;-78
2022/12/29 06:02:35;;;;;;;42.03;20.65;;;;;;;-0.45;100.00;97956.34;1735069;81;21027;-77
2022/12/29 06:05:03;;;;;;;41.28;22.87;;;;;;;-0.51;100.00;97955.36;1757040;79;21061;-78
2022/12/29 06:07:30;;;;;;;50.55;20.65;;;;;;;-0.47;100.00;97949.91;1762271;81;21438;-77
2022/12/29 06:09:56;;;;;;;40.35;22.58;;;;;;;-0.58;100.00;97951.39;1762644;81;21034;-76
2022/12/29 06:12:23;;;;;;;31.25;16.95;;;;;;;-0.65;100.00;97955.91;1739177;81;22247;-78
2022/12/29 06:14:50;;;;;;;31.00;17.82;;;;;;;-0.66;100.00;97950.80;1733486;81;21688;-78
2022/12/29 06:17:17;;;;;;;35.48;18.12;;;;;;;-0.64;100.00;97952.73;1733577;82;21062;-76
2022/12/29 06:19:44;;;;;;;54.00;26.68;;;;;;;-0.62;100.00;97948.02;1744496;79;21097;-78
2022/12/29 06:22:12;;;;;;;49.48;23.42;;;;;;;-0.61;100.00;97942.98;1750523;79;21078;-76
2022/12/29 06:24:39;;;;;;;38.02;19.48;;;;;;;-0.60;100.00;97945.95;1733262;82;21070;-76
2022/12/29 06:27:05;;;;;;;35.50;17.98;;;;;;;-0.58;100.00;97937.27;1752508;79;21804;-76
2022/12/29 06:29:32;;;;;;;29.90;16.42;;;;;;;-0.59;100.00;97939.62;1763213;81;20995;-76
2022/12/29 06:32:01;;;;;;;36.88;17.77;;;;;;;-0.57;100.00;97950.36;1762701;81;33482;-76
2022/12/29 06:34:27;;;;;;;30.08;16.10;;;;;;;-0.52;100.00;97945.72;1763638;81;21063;-78
2022/12/29 06:36:54;;;;;;;30.17;15.85;;;;;;;-0.48;100.00;97948.80;1792423;79;21028;-76
2022/12/29 06:39:21;;;;;;;29.82;18.57;;;;;;;-0.45;100.00;97947.84;1775117;79;21875;-76
2022/12/29 06:41:48;;;;;;;28.95;15.65;;;;;;;-0.38;100.00;97952.64;1758906;81;21062;-76
2022/12/29 06:44:15;;;;;;;39.35;15.30;;;;;;;-0.30;100.00;97944.41;1721671;82;21053;-76
2022/12/29 06:46:42;;;;;;;24.63;13.32;;;;;;;-0.17;100.00;97948.02;1743166;79;21020;-78
2022/12/29 06:49:09;;;;;;;29.77;17.98;;;;;;;0.04;100.00;97949.05;1750288;81;21011;-78
2022/12/29 06:51:36;;;;;;;31.87;17.48;;;;;;;0.45;100.00;97951.77;1744778;79;21749;-76
2022/12/29 06:54:03;;;;;;;19.30;10.65;;;;;;;0.64;100.00;97950.78;1734869;79;20997;-78
2022/12/29 06:56:30;;;;;;;43.58;18.85;;;;;;;0.83;100.00;97948.97;1766580;79;21020;-78
2022/12/29 06:58:59;;;;;;;31.77;17.20;;;;;;;1.08;100.00;97947.09;1779609;79;20984;-76
2022/12/29 07:01:26;;;;;;;39.88;20.60;;;;;;;1.25;100.00;97937.99;1753172;79;21437;-78
2022/12/29 07:03:53;;;;;;;68.10;26.75;;;;;;;1.36;100.00;97937.24;1762412;79;21126;-76
2022/12/29 07:06:20;;;;;;;43.42;24.27;;;;;;;1.36;100.00;97930.56;1760784;79;21028;-76
2022/12/29 07:08:47;;;;;;;85.97;41.45;;;;;;;1.32;100.00;97936.07;1741740;79;21018;-77
2022/12/29 07:11:14;;;;;;;30.32;16.70;;;;;;;1.35;100.00;97941.48;1752627;79;21192;-76
2022/12/29 07:13:41;;;;;;;53.70;24.45;;;;;;;1.43;100.00;97933.17;1745572;81;21047;-76
2022/12/29 07:16:09;;;;;;;31.97;19.50;;;;;;;1.59;99.84;97938.43;1775448;79;21767;-78
2022/12/29 07:18:36;;;;;;;23.87;13.45;;;;;;;1.75;99.22;97930.33;1740253;81;21078;-76
2022/12/29 07:21:03;;;;;;;24.72;13.10;;;;;;;1.96;98.14;97931.98;1748352;79;21127;-77
2022/12/29 07:23:30;;;;;;;26.85;11.22;;;;;;;2.07;97.69;97916.23;1732262;81;21514;-76
2022/12/29 07:26:03;;;;;;;91.87;45.10;;;;;;;2.12;97.44;97921.70;1765125;79;21020;-78
2022/12/29 07:28:29;;;;;;;44.45;25.37;;;;;;;2.22;97.24;97914.77;1755805;79;21116;-78
2022/12/29 07:30:56;;;;;;;18.40;11.70;;;;;;;2.25;97.24;97918.31;1740093;81;21051;-78
2022/12/29 07:33:23;;;;;;;14.23;8.65;;;;;;;2.23;96.23;97916.41;1752547;79;20960;-76
2022/12/29 07:35:50;;;;;;;11.28;6.62;;;;;;;2.23;96.87;97920.94;1739642;79;21016;-76
2022/12/29 07:38:17;;;;;;;16.67;11.40;;;;;;;2.25;97.46;97925.00;1740649;81;21011;-76
2022/12/29 07:40:44;;;;;;;13.88;7.53;;;;;;;2.28;97.98;97922.39;1751116;79;21034;-76
2022/12/29 07:43:11;;;;;;;12.30;6.83;;;;;;;2.30;97.60;97929.65;1760695;81;21544;-78
2022/12/29 07:45:38;;;;;;;19.52;7.53;;;;;;;2.32;97.32;97921.42;1746645;79;21095;-79
2022/12/29 07:48:07;;;;;;;15.58;7.60;;;;;;;2.22;97.43;97926.81;1747607;81;21070;-76
2022/12/29 07:50:35;;;;;;;30.25;16.77;;;;;;;2.19;97.51;97934.45;1744425;81;20995;-78
2022/12/29 07:53:02;;;;;;;27.52;15.60;;;;;;;2.20;98.04;97936.08;1742841;81;21740;-76
2022/12/29 07:55:29;;;;;;;32.83;15.78;;;;;;;2.23;98.11;97932.97;1740776;81;21152;-78
2022/12/29 07:57:56;;;;;;;18.17;9.05;;;;;;;2.25;98.40;97934.36;1764265;79;21013;-78
2022/12/29 08:00:23;;;;;;;27.67;13.35;;;;;;;2.23;98.09;97934.30;1742626;81;21567;-76
2022/12/29 08:02:50;;;;;;;25.50;11.22;;;;;;;2.34;98.13;97933.52;1741112;81;21024;-78
2022/12/29 08:05:17;;;;;;;32.65;19.82;;;;;;;2.57;97.56;97938.11;1756247;79;21861;-78
2022/12/29 08:07:44;;;;;;;28.77;15.68;;;;;;;2.82;96.91;97941.39;1763139;79;21001;-76
2022/12/29 08:10:11;;;;;;;59.77;31.02;;;;;;;2.95;96.68;97925.61;1751165;79;21047;-76
2022/12/29 08:12:38;;;;;;;50.43;25.77;;;;;;;3.03;96.10;97929.81;1748327;79;21052;-76
2022/12/29 08:15:06;;;;;;;15.85;8.43;;;;;;;3.05;94.94;97925.84;1751412;79;21025;-78
2022/12/29 08:17:33;;;;;;;17.52;8.28;;;;;;;3.03;95.44;97934.64;1753463;81;21191;-77
2022/12/29 08:20:00;;;;;;;22.02;9.45;;;;;;;3.03;96.31;97939.99;1754647;79;21685;-76
2022/12/29 08:22:27;;;;;;;27.82;14.93;;;;;;;3.03;96.43;97932.48;1746399;81;21048;-78
2022/12/29 08:24:54;;;;;;;18.15;10.18;;;;;;;3.03;96.68;97933.30;1763178;79;21104;-78
2022/12/29 08:27:21;;;;;;;23.00;10.75;;;;;;;3.14;96.65;97934.86;1758066;79;21024;-76
2022/12/29 08:29:48;;;;;;;43.08;10.58;;;;;;;3.22;97.00;97935.84;1759584;79;21575;-78
2022/12/29 08:32:15;;;;;;;39.63;21.40;;;;;;;3.32;97.17;97932.86;1739047;81;20978;-76
2022/12/29 08:34:42;;;;;;;52.50;25.75;;;;;;;3.35;94.97;97935.09;1740082;80;21459;-78
2022/12/29 08:37:09;;;;;;;30.70;17.52;;;;;;;3.45;94.32;97935.83;1752181;81;20976;-78
2022/12/29 08:39:36;;;;;;;55.58;26.65;;;;;;;3.63;95.90;97927.63;1737498;81;21653;-78
2022/12/29 08:42:03;;;;;;;60.05;22.42;;;;;;;3.61;96.03;97923.03;1732787;81;21118;-79
2022/12/29 08:44:29;;;;;;;60.03;24.87;;;;;;;3.65;96.20;97924.70;1747151;81;20978;-76
2022/12/29 08:46:56;;;;;;;69.58;39.03;;;;;;;3.70;95.36;97922.66;1748060;80;22057;-76
2022/12/29 08:49:23;;;;;;;82.82;40.33;;;;;;;3.77;94.95;97926.03;1790962;79;21062;-78
2022/12/29 08:51:50;;;;;;;46.60;26.35;;;;;;;3.80;93.42;97927.69;1736121;80;21037;-79
2022/12/29 08:54:17;;;;;;;51.95;26.00;;;;;;;3.88;95.02;97936.70;1727373;81;21082;-76
2022/12/29 08:56:44;;;;;;;66.15;37.17;;;;;;;3.91;95.42;97930.04;1746332;79;21541;-76
2022/12/29 08:59:11;;;;;;;49.40;29.52;;;;;;;3.87;94.49;97930.23;1744798;81;21018;-79
2022/12/29 09:01:40;;;;;;;35.23;18.40;;;;;;;4.02;95.55;97929.73;1740472;81;21487;-76
2022/12/29 09:04:07;;;;;;;46.23;20.15;;;;;;;4.21;95.83;97919.89;1759207;81;21507;-76
2022/12/29 09:06:34;;;;;;;36.75;17.35;;;;;;;4.40;95.52;97918.33;1758472;79;21167;-76
2022/12/29 09:09:01;;;;;;;74.85;36.25;;;;;;;4.52;95.82;97917.19;1755306;79;21176;-79
2022/12/29 09:11:28;;;;;;;39.95;16.07;;;;;;;4.68;96.21;97918.78;1759702;79;21062;-76
2022/12/29 09:13:55;;;;;;;22.25;8.48;;;;;;;4.90;95.37;97918.88;1757621;79;21055;-76
2022/12/29 09:16:23;;;;;;;8.18;4.85;;;;;;;5.28;92.65;97917.53;1759960;79;21488;-76
2022/12/29 09:18:50;;;;;;;8.65;4.62;;;;;;;5.66;89.49;97915.89;1728723;81;21481;-76
2022/12/29 09:21:17;;;;;;;13.68;5.20;;;;;;;6.04;89.03;97917.69;1757419;79;21729;-76
2022/12/29 09:23:44;;;;;;;23.18;5.28;;;;;;;6.28;89.77;97918.22;1757726;81;21118;-77
2022/12/29 09:26:11;;;;;;;12.45;5.75;;;;;;;6.43;88.31;97925.09;1761068;79;20988;-76
2022/12/29 09:28:38;;;;;;;13.45;6.17;;;;;;;6.58;87.40;97919.05;1783851;79;21049;-79
2022/12/29 09:31:05;;;;;;;14.93;7.15;;;;;;;6.68;87.67;97928.55;1742632;81;21925;-77
2022/12/29 09:33:34;;;;;;;22.32;13.72;;;;;;;6.77;87.70;97922.16;1758744;79;20991;-79
2022/12/29 09:36:01;;;;;;;12.75;7.22;;;;;;;6.83;86.99;97920.30;1749331;81;21376;-79
2022/12/29 09:38:28;;;;;;;23.67;11.50;;;;;;;6.91;87.68;97917.94;1750381;81;21103;-79
2022/12/29 09:41:03;;;;;;;22.55;10.78;;;;;;;6.99;87.33;97912.61;1767427;79;21136;-79
2022/12/29 09:43:56;;;;;;;11.03;6.47;;;;;;;7.04;85.59;97911.31;1773650;79;21020;-79
2022/12/29 09:46:44;;;;;;;17.07;8.23;;;;;;;7.12;83.97;97906.78;1782876;79;21044;-79
2022/12/29 09:49:35;;;;;;;13.48;6.58;;;;;;;7.24;84.20;97906.03;1738930;79;21480;-79
2022/12/29 09:52:08;;;;;;;13.05;7.65;;;;;;;7.30;83.02;97893.41;1767171;81;21075;-79
2022/12/29 09:54:43;;;;;;;11.20;5.53;;;;;;;7.39;82.64;97887.80;1735503;79;22206;-76
2022/12/29 09:57:30;;;;;;;10.85;6.25;;;;;;;7.48;82.23;97890.80;1729350;80;21019;-76
2022/12/29 10:00:04;;;;;;;10.40;5.62;;;;;;;7.57;81.18;97887.34;1752578;80;20989;-79
2022/12/29 10:02:41;;;;;;;10.48;6.58;;;;;;;7.67;82.54;97871.73;1752018;81;21030;-77
2022/12/29 10:05:46;;;;;;;10.60;5.85;;;;;;;7.74;81.37;97870.14;1717927;81;21003;-77
2022/12/29 10:08:28;;;;;;;11.97;6.47;;;;;;;7.82;83.21;97885.27;1734500;80;21071;-77
2022/12/29 10:10:59;;;;;;;12.35;6.00;;;;;;;7.93;84.25;97892.31;1750966;81;21451;-79
2022/12/29 10:14:18;;;;;;;9.35;4.92;;;;;;;7.94;82.55;97898.52;1772612;79;20989;-77
2022/12/29 10:16:57;;;;;;;13.50;5.40;;;;;;;8.01;81.64;97900.44;1744344;81;21023;-78
2022/12/29 10:19:35;;;;;;;34.38;6.55;;;;;;;8.07;82.97;97892.63;1760137;79;21479;-77
2022/12/29 10:22:29;;;;;;;10.03;4.75;;;;;;;8.12;81.54;97883.21;1766743;80;21088;-76
2022/12/29 10:24:56;;;;;;;11.80;6.37;;;;;;;8.20;79.24;97881.84;1756026;81;21080;-77
2022/12/29 10:27:25;;;;;;;13.10;5.75;;;;;;;8.08;80.45;97868.61;1776289;79;21043;-79
2022/12/29 10:29:55;;;;;;;10.60;5.58;;;;;;;8.16;82.17;97890.22;1743223;81;21422;-77
2022/12/29 10:32:31;;;;;;;12.75;5.35;;;;;;;8.19;81.42;97882.39;1742263;81;21421;-76
2022/12/29 10:35:18;;;;;;;12.58;6.85;;;;;;;8.26;80.72;97874.58;1737442;81;21018;-79
2022/12/29 10:37:51;;;;;;;11.50;6.20;;;;;;;8.32;80.72;97876.22;1719971;82;21778;-79
2022/12/29 10:40:50;;;;;;;14.90;6.87;;;;;;;8.39;79.63;97877.61;1731177;81;21130;-79
2022/12/29 10:43:37;;;;;;;9.40;5.25;;;;;;;8.39;79.63;97877.61;1745045;80;21474;-77
2022/12/29 10:46:07;;;;;;;9.75;5.40;;;;;;;8.50;79.50;97871.66;1763881;80;21008;-79
2022/12/29 10:48:34;;;;;;;10.43;6.28;;;;;;;8.50;79.50;97871.66;1730449;82;21088;-77
2022/12/29 10:51:05;;;;;;;12.03;6.92;;;;;;;8.47;78.28;97862.77;1744518;81;21121;-79
2022/12/29 10:53:40;;;;;;;14.80;7.65;;;;;;;8.57;79.39;97875.45;1739299;80;20989;-77
2022/12/29 10:56:18;;;;;;;10.23;6.70;;;;;;;8.72;77.33;97862.77;1726030;81;21043;-77
2022/12/29 10:58:46;;;;;;;13.22;6.47;;;;;;;8.72;77.33;97862.77;1709379;81;21303;-77
2022/12/29 11:01:13;;;;;;;13.07;6.13;;;;;;;8.76;77.10;97863.02;1730194;81;21012;-79
2022/12/29 11:03:52;;;;;;;14.25;5.95;;;;;;;8.78;77.71;97867.60;1732478;80;21437;-77
2022/12/29 11:06:22;;;;;;;;;;;;;;;8.95;77.36;97861.91;1753348;80;21110;-77
2022/12/29 11:08:59;;;;;;;19.30;10.25;;;;;;;9.04;76.16;97852.97;1752203;80;20187;-77
2022/12/29 11:11:33;;;;;;;35.00;16.93;;;;;;;9.11;77.37;97842.42;1740002;80;21068;-77
2022/12/29 11:14:13;;;;;;;35.80;19.12;;;;;;;9.11;77.13;97832.96;1741272;80;21110;-79
2022/12/29 11:16:41;;;;;;;15.88;8.38;;;;;;;9.10;75.60;97837.56;1732629;81;21524;-80
2022/12/29 11:19:23;;;;;;;14.18;8.25;;;;;;;9.14;75.29;97834.56;1737793;80;21070;-79
2022/12/29 11:21:50;;;;;;;13.65;7.58;;;;;;;9.22;74.59;97839.95;1762098;80;21041;-79
2022/12/29 11:24:27;;;;;;;14.43;7.08;;;;;;;9.31;75.09;97842.35;1747696;80;21016;-79
2022/12/29 11:26:59;;;;;;;14.70;7.25;;;;;;;9.40;76.01;97838.53;1729419;81;21020;-79
2022/12/29 11:29:29;;;;;;;12.00;7.83;;;;;;;9.47;74.43;97842.56;1722791;80;21161;-80
2022/12/29 11:31:58;;;;;;;12.37;6.58;;;;;;;9.49;74.17;97847.72;1736255;80;21112;-77
2022/12/29 11:34:34;;;;;;;11.45;6.92;;;;;;;9.55;74.78;97844.70;1762564;80;21078;-77
2022/12/29 11:37:04;;;;;;;13.93;6.10;;;;;;;9.53;75.03;97841.47;1749933;81;21011;-77
2022/12/29 11:39:40;;;;;;;9.53;4.58;;;;;;;9.57;76.07;97837.66;1773079;79;21041;-77
2022/12/29 11:42:12;;;;;;;9.23;5.53;;;;;;;9.65;75.00;97837.63;1757025;80;21052;-77
2022/12/29 11:44:46;;;;;;;14.60;7.10;;;;;;;9.73;74.95;97839.75;1750779;81;21131;-79
2022/12/29 11:47:29;;;;;;;10.93;6.58;;;;;;;9.83;73.69;97842.42;1759370;79;21039;-77
2022/12/29 11:50:00;;;;;;;16.50;8.00;;;;;;;9.85;74.84;97844.30;1737029;81;21083;-79
2022/12/29 11:52:32;;;;;;;10.50;5.83;;;;;;;9.94;72.20;97841.27;1742957;80;21054;-77
2022/12/29 11:55:00;;;;;;;13.20;6.87;;;;;;;9.94;71.79;97848.04;1743136;80;21154;-80
2022/12/29 11:57:27;;;;;;;22.13;7.62;;;;;;;9.89;72.94;97839.94;1742212;80;21555;-80
2022/12/29 11:59:57;;;;;;;14.05;6.28;;;;;;;9.88;72.43;97835.07;1731931;81;21035;-77
2022/12/29 12:02:56;;;;;;;21.90;10.30;;;;;;;9.89;71.57;97827.21;1740830;81;21153;-77
2022/12/29 12:05:30;;;;;;;;;;;;;;;9.86;73.04;97830.48;1746330;80;21150;-77
2022/12/29 12:08:17;;;;;;;43.17;19.57;;;;;;;9.90;72.91;97836.95;1758602;80;20908;-77
2022/12/29 12:10:58;;;;;;;26.30;12.60;;;;;;;9.88;73.79;97838.33;1720987;81;21173;-77
2022/12/29 12:13:35;;;;;;;24.95;12.50;;;;;;;9.93;72.82;97838.30;1737561;79;21011;-80
2022/12/29 12:16:08;;;;;;;14.73;7.55;;;;;;;9.95;73.08;97841.53;1761977;80;20984;-77